sensor_id;sensor_type;location;lat;lon;timestamp;P1;durP1;ratioP1;P2;durP2;ratioP2
29384;SDS011;16367;48.736;9.218;2023-04-23T00:00:07;5.15;;;1.90;;
29384;SDS011;16367;48.736;9.218;2023-04-23T00:02:13;6.82;;;2.10;;
29384;SDS011;16367;48.736;9.218;2023-04-23T00:04:18;4.75;;;2.20;;
29384;SDS011;16367;48.736;9.218;2023-04-23T00:06:23;6.60;;;1.90;;
29384;SDS011;16367;48.736;9.218;2023-04-23T00:08:27;5.53;;;1.95;;
29384;SDS011;16367;48.736;9.218;2023-04-23T00:10:33;7.45;;;1.90;;
29384;SDS011;16367;48.736;9.218;2023-04-23T00:12:35;5.25;;;2.20;;
29384;SDS011;16367;48.736;9.218;2023-04-23T00:14:39;6.20;;;1.92;;
29384;SDS011;16367;48.736;9.218;2023-04-23T00:16:43;6.45;;;2.25;;
29384;SDS011;16367;48.736;9.218;2023-04-23T00:18:46;5.70;;;2.20;;
29384;SDS011;16367;48.736;9.218;2023-04-23T00:20:49;5.43;;;2.17;;
29384;SDS011;16367;48.736;9.218;2023-04-23T00:22:52;4.20;;;1.83;;
29384;SDS011;16367;48.736;9.218;2023-04-23T00:24:54;4.47;;;1.92;;
29384;SDS011;16367;48.736;9.218;2023-04-23T00:26:58;5.30;;;2.00;;
29384;SDS011;16367;48.736;9.218;2023-04-23T00:29:01;5.85;;;2.00;;
29384;SDS011;16367;48.736;9.218;2023-04-23T00:31:04;7.05;;;2.05;;
29384;SDS011;16367;48.736;9.218;2023-04-23T00:33:07;6.65;;;2.35;;
29384;SDS011;16367;48.736;9.218;2023-04-23T00:35:10;4.63;;;1.92;;
29384;SDS011;16367;48.736;9.218;2023-04-23T00:37:14;5.30;;;2.03;;
29384;SDS011;16367;48.736;9.218;2023-04-23T00:39:17;4.97;;;1.90;;
29384;SDS011;16367;48.736;9.218;2023-04-23T00:41:20;5.55;;;2.33;;
29384;SDS011;16367;48.736;9.218;2023-04-23T00:43:24;7.07;;;2.22;;
29384;SDS011;16367;48.736;9.218;2023-04-23T00:45:27;5.65;;;2.15;;
29384;SDS011;16367;48.736;9.218;2023-04-23T00:47:30;5.95;;;1.85;;
29384;SDS011;16367;48.736;9.218;2023-04-23T00:49:34;5.70;;;2.10;;
29384;SDS011;16367;48.736;9.218;2023-04-23T00:51:37;5.63;;;2.33;;
29384;SDS011;16367;48.736;9.218;2023-04-23T00:53:40;6.95;;;2.17;;
29384;SDS011;16367;48.736;9.218;2023-04-23T00:55:42;5.05;;;2.03;;
29384;SDS011;16367;48.736;9.218;2023-04-23T00:57:45;4.70;;;1.85;;
29384;SDS011;16367;48.736;9.218;2023-04-23T00:59:50;7.00;;;1.60;;
29384;SDS011;16367;48.736;9.218;2023-04-23T01:01:55;6.63;;;2.42;;
29384;SDS011;16367;48.736;9.218;2023-04-23T01:03:58;5.47;;;2.03;;
29384;SDS011;16367;48.736;9.218;2023-04-23T01:06:01;4.38;;;2.00;;
29384;SDS011;16367;48.736;9.218;2023-04-23T01:08:04;6.18;;;2.30;;
29384;SDS011;16367;48.736;9.218;2023-04-23T01:10:08;7.13;;;2.33;;
29384;SDS011;16367;48.736;9.218;2023-04-23T01:12:12;5.38;;;1.73;;
29384;SDS011;16367;48.736;9.218;2023-04-23T01:14:16;5.88;;;2.10;;
29384;SDS011;16367;48.736;9.218;2023-04-23T01:16:20;4.97;;;2.10;;
29384;SDS011;16367;48.736;9.218;2023-04-23T01:18:23;8.68;;;2.20;;
29384;SDS011;16367;48.736;9.218;2023-04-23T01:20:26;4.47;;;1.92;;
29384;SDS011;16367;48.736;9.218;2023-04-23T01:22:31;5.53;;;2.15;;
29384;SDS011;16367;48.736;9.218;2023-04-23T01:24:34;5.97;;;2.10;;
29384;SDS011;16367;48.736;9.218;2023-04-23T01:26:37;5.88;;;2.03;;
29384;SDS011;16367;48.736;9.218;2023-04-23T01:28:40;5.88;;;1.80;;
29384;SDS011;16367;48.736;9.218;2023-04-23T01:30:45;4.65;;;1.70;;
29384;SDS011;16367;48.736;9.218;2023-04-23T01:32:49;4.95;;;1.92;;
29384;SDS011;16367;48.736;9.218;2023-04-23T01:34:52;6.55;;;2.03;;
29384;SDS011;16367;48.736;9.218;2023-04-23T01:36:57;4.18;;;1.63;;
29384;SDS011;16367;48.736;9.218;2023-04-23T01:39:01;7.47;;;2.10;;
29384;SDS011;16367;48.736;9.218;2023-04-23T01:41:04;5.88;;;2.45;;
29384;SDS011;16367;48.736;9.218;2023-04-23T01:43:07;4.95;;;2.20;;
29384;SDS011;16367;48.736;9.218;2023-04-23T01:45:11;5.03;;;1.80;;
29384;SDS011;16367;48.736;9.218;2023-04-23T01:47:15;5.65;;;2.13;;
29384;SDS011;16367;48.736;9.218;2023-04-23T01:49:18;4.43;;;1.70;;
29384;SDS011;16367;48.736;9.218;2023-04-23T01:51:21;4.30;;;1.80;;
29384;SDS011;16367;48.736;9.218;2023-04-23T01:53:25;5.40;;;1.95;;
29384;SDS011;16367;48.736;9.218;2023-04-23T01:55:29;5.03;;;1.80;;
29384;SDS011;16367;48.736;9.218;2023-04-23T01:57:33;4.10;;;1.67;;
29384;SDS011;16367;48.736;9.218;2023-04-23T01:59:36;7.68;;;2.10;;
29384;SDS011;16367;48.736;9.218;2023-04-23T02:01:42;4.28;;;1.98;;
29384;SDS011;16367;48.736;9.218;2023-04-23T02:03:46;4.80;;;2.17;;
29384;SDS011;16367;48.736;9.218;2023-04-23T02:05:51;5.07;;;2.10;;
29384;SDS011;16367;48.736;9.218;2023-04-23T02:07:55;5.13;;;1.83;;
29384;SDS011;16367;48.736;9.218;2023-04-23T02:09:58;5.47;;;2.05;;
29384;SDS011;16367;48.736;9.218;2023-04-23T02:12:02;5.38;;;1.77;;
29384;SDS011;16367;48.736;9.218;2023-04-23T02:14:05;4.90;;;1.95;;
29384;SDS011;16367;48.736;9.218;2023-04-23T02:16:09;5.50;;;1.90;;
29384;SDS011;16367;48.736;9.218;2023-04-23T02:18:13;4.75;;;1.67;;
29384;SDS011;16367;48.736;9.218;2023-04-23T02:20:15;7.15;;;2.10;;
29384;SDS011;16367;48.736;9.218;2023-04-23T02:22:18;6.05;;;1.95;;
29384;SDS011;16367;48.736;9.218;2023-04-23T02:24:22;5.05;;;1.90;;
29384;SDS011;16367;48.736;9.218;2023-04-23T02:26:25;5.55;;;1.98;;
29384;SDS011;16367;48.736;9.218;2023-04-23T02:28:30;4.15;;;1.80;;
29384;SDS011;16367;48.736;9.218;2023-04-23T02:30:33;4.72;;;1.63;;
29384;SDS011;16367;48.736;9.218;2023-04-23T02:32:36;5.07;;;2.33;;
29384;SDS011;16367;48.736;9.218;2023-04-23T02:34:40;4.18;;;1.70;;
29384;SDS011;16367;48.736;9.218;2023-04-23T02:36:43;5.18;;;1.60;;
29384;SDS011;16367;48.736;9.218;2023-04-23T02:38:46;4.82;;;2.05;;
29384;SDS011;16367;48.736;9.218;2023-04-23T02:40:51;4.50;;;1.88;;
29384;SDS011;16367;48.736;9.218;2023-04-23T02:42:53;4.53;;;1.70;;
29384;SDS011;16367;48.736;9.218;2023-04-23T02:44:57;5.63;;;1.90;;
29384;SDS011;16367;48.736;9.218;2023-04-23T02:47:00;4.65;;;1.83;;
29384;SDS011;16367;48.736;9.218;2023-04-23T02:49:04;4.88;;;1.98;;
29384;SDS011;16367;48.736;9.218;2023-04-23T02:51:07;4.75;;;2.00;;
29384;SDS011;16367;48.736;9.218;2023-04-23T02:53:12;4.85;;;2.20;;
29384;SDS011;16367;48.736;9.218;2023-04-23T02:55:15;5.15;;;1.63;;
29384;SDS011;16367;48.736;9.218;2023-04-23T02:57:17;4.32;;;1.80;;
29384;SDS011;16367;48.736;9.218;2023-04-23T02:59:21;5.95;;;2.05;;
29384;SDS011;16367;48.736;9.218;2023-04-23T03:01:25;4.68;;;1.80;;
29384;SDS011;16367;48.736;9.218;2023-04-23T03:03:31;4.95;;;1.83;;
29384;SDS011;16367;48.736;9.218;2023-04-23T03:05:34;5.70;;;2.05;;
29384;SDS011;16367;48.736;9.218;2023-04-23T03:07:37;4.85;;;2.80;;
29384;SDS011;16367;48.736;9.218;2023-04-23T03:09:40;3.80;;;1.67;;
29384;SDS011;16367;48.736;9.218;2023-04-23T03:11:42;4.32;;;2.15;;
29384;SDS011;16367;48.736;9.218;2023-04-23T03:13:45;4.97;;;1.80;;
29384;SDS011;16367;48.736;9.218;2023-04-23T03:15:48;8.18;;;2.00;;
29384;SDS011;16367;48.736;9.218;2023-04-23T03:17:53;6.20;;;2.10;;
29384;SDS011;16367;48.736;9.218;2023-04-23T03:19:56;4.75;;;1.80;;
29384;SDS011;16367;48.736;9.218;2023-04-23T03:21:58;5.28;;;1.80;;
29384;SDS011;16367;48.736;9.218;2023-04-23T03:24:04;4.95;;;1.95;;
29384;SDS011;16367;48.736;9.218;2023-04-23T03:26:07;4.97;;;1.92;;
29384;SDS011;16367;48.736;9.218;2023-04-23T03:28:09;5.15;;;1.98;;
29384;SDS011;16367;48.736;9.218;2023-04-23T03:30:12;4.18;;;1.80;;
29384;SDS011;16367;48.736;9.218;2023-04-23T03:32:15;4.05;;;1.75;;
29384;SDS011;16367;48.736;9.218;2023-04-23T03:34:19;6.28;;;2.35;;
29384;SDS011;16367;48.736;9.218;2023-04-23T03:36:21;5.20;;;1.95;;
29384;SDS011;16367;48.736;9.218;2023-04-23T03:38:24;7.20;;;1.77;;
29384;SDS011;16367;48.736;9.218;2023-04-23T03:40:27;6.78;;;1.98;;
29384;SDS011;16367;48.736;9.218;2023-04-23T03:42:30;5.28;;;1.80;;
29384;SDS011;16367;48.736;9.218;2023-04-23T03:44:32;5.07;;;2.10;;
29384;SDS011;16367;48.736;9.218;2023-04-23T03:46:35;4.13;;;1.73;;
29384;SDS011;16367;48.736;9.218;2023-04-23T03:48:38;4.50;;;1.65;;
29384;SDS011;16367;48.736;9.218;2023-04-23T03:50:42;4.18;;;1.92;;
29384;SDS011;16367;48.736;9.218;2023-04-23T03:52:45;4.93;;;1.95;;
29384;SDS011;16367;48.736;9.218;2023-04-23T03:54:47;5.25;;;1.90;;
29384;SDS011;16367;48.736;9.218;2023-04-23T03:56:50;4.97;;;2.00;;
29384;SDS011;16367;48.736;9.218;2023-04-23T03:58:53;4.32;;;1.60;;
29384;SDS011;16367;48.736;9.218;2023-04-23T04:00:56;4.90;;;1.80;;
29384;SDS011;16367;48.736;9.218;2023-04-23T04:02:58;4.55;;;1.70;;
29384;SDS011;16367;48.736;9.218;2023-04-23T04:05:02;4.63;;;2.30;;
29384;SDS011;16367;48.736;9.218;2023-04-23T04:07:07;6.45;;;1.88;;
29384;SDS011;16367;48.736;9.218;2023-04-23T04:09:12;5.20;;;1.80;;
29384;SDS011;16367;48.736;9.218;2023-04-23T04:11:15;4.22;;;1.65;;
29384;SDS011;16367;48.736;9.218;2023-04-23T04:13:17;5.70;;;1.90;;
29384;SDS011;16367;48.736;9.218;2023-04-23T04:15:20;5.03;;;2.03;;
29384;SDS011;16367;48.736;9.218;2023-04-23T04:17:23;5.40;;;1.85;;
29384;SDS011;16367;48.736;9.218;2023-04-23T04:19:26;3.67;;;1.50;;
29384;SDS011;16367;48.736;9.218;2023-04-23T04:21:29;3.75;;;1.75;;
29384;SDS011;16367;48.736;9.218;2023-04-23T04:23:33;5.13;;;2.30;;
29384;SDS011;16367;48.736;9.218;2023-04-23T04:25:36;4.57;;;1.75;;
29384;SDS011;16367;48.736;9.218;2023-04-23T04:27:40;3.70;;;1.55;;
29384;SDS011;16367;48.736;9.218;2023-04-23T04:29:43;4.32;;;1.65;;
29384;SDS011;16367;48.736;9.218;2023-04-23T04:31:46;5.20;;;1.90;;
29384;SDS011;16367;48.736;9.218;2023-04-23T04:33:52;5.03;;;2.00;;
29384;SDS011;16367;48.736;9.218;2023-04-23T04:36:00;4.20;;;1.80;;
29384;SDS011;16367;48.736;9.218;2023-04-23T04:38:04;4.32;;;1.80;;
29384;SDS011;16367;48.736;9.218;2023-04-23T04:40:08;5.00;;;2.10;;
29384;SDS011;16367;48.736;9.218;2023-04-23T04:42:12;14.23;;;3.20;;
29384;SDS011;16367;48.736;9.218;2023-04-23T04:44:16;3.78;;;1.75;;
29384;SDS011;16367;48.736;9.218;2023-04-23T04:46:19;4.25;;;1.80;;
29384;SDS011;16367;48.736;9.218;2023-04-23T04:48:21;4.70;;;1.85;;
29384;SDS011;16367;48.736;9.218;2023-04-23T04:50:23;4.20;;;1.80;;
29384;SDS011;16367;48.736;9.218;2023-04-23T04:52:26;4.47;;;2.00;;
29384;SDS011;16367;48.736;9.218;2023-04-23T04:54:29;4.80;;;1.90;;
29384;SDS011;16367;48.736;9.218;2023-04-23T04:56:33;4.60;;;1.75;;
29384;SDS011;16367;48.736;9.218;2023-04-23T04:58:36;7.53;;;2.20;;
29384;SDS011;16367;48.736;9.218;2023-04-23T05:00:38;4.82;;;2.00;;
29384;SDS011;16367;48.736;9.218;2023-04-23T05:02:41;4.63;;;1.85;;
29384;SDS011;16367;48.736;9.218;2023-04-23T05:04:44;5.07;;;1.80;;
29384;SDS011;16367;48.736;9.218;2023-04-23T05:06:47;6.63;;;1.90;;
29384;SDS011;16367;48.736;9.218;2023-04-23T05:08:49;4.18;;;1.80;;
29384;SDS011;16367;48.736;9.218;2023-04-23T05:10:52;4.03;;;1.85;;
29384;SDS011;16367;48.736;9.218;2023-04-23T05:12:56;4.80;;;1.73;;
29384;SDS011;16367;48.736;9.218;2023-04-23T05:14:59;4.10;;;2.00;;
29384;SDS011;16367;48.736;9.218;2023-04-23T05:17:02;4.10;;;1.67;;
29384;SDS011;16367;48.736;9.218;2023-04-23T05:19:04;5.07;;;2.05;;
29384;SDS011;16367;48.736;9.218;2023-04-23T05:21:08;4.85;;;1.80;;
29384;SDS011;16367;48.736;9.218;2023-04-23T05:23:11;4.20;;;1.55;;
29384;SDS011;16367;48.736;9.218;2023-04-23T05:25:14;4.35;;;1.63;;
29384;SDS011;16367;48.736;9.218;2023-04-23T05:27:16;4.15;;;1.38;;
29384;SDS011;16367;48.736;9.218;2023-04-23T05:29:21;3.90;;;1.35;;
29384;SDS011;16367;48.736;9.218;2023-04-23T05:31:23;3.97;;;1.48;;
29384;SDS011;16367;48.736;9.218;2023-04-23T05:33:29;4.22;;;1.42;;
29384;SDS011;16367;48.736;9.218;2023-04-23T05:35:46;4.63;;;1.38;;
29384;SDS011;16367;48.736;9.218;2023-04-23T05:37:49;3.75;;;1.50;;
29384;SDS011;16367;48.736;9.218;2023-04-23T05:39:52;4.60;;;1.75;;
29384;SDS011;16367;48.736;9.218;2023-04-23T05:41:54;4.30;;;1.42;;
29384;SDS011;16367;48.736;9.218;2023-04-23T05:43:58;4.00;;;1.50;;
29384;SDS011;16367;48.736;9.218;2023-04-23T05:46:02;3.70;;;1.60;;
29384;SDS011;16367;48.736;9.218;2023-04-23T05:48:07;3.60;;;1.25;;
29384;SDS011;16367;48.736;9.218;2023-04-23T05:50:10;4.13;;;1.60;;
29384;SDS011;16367;48.736;9.218;2023-04-23T05:52:12;3.60;;;1.40;;
29384;SDS011;16367;48.736;9.218;2023-04-23T05:54:15;3.78;;;1.40;;
29384;SDS011;16367;48.736;9.218;2023-04-23T05:56:21;4.38;;;1.10;;
29384;SDS011;16367;48.736;9.218;2023-04-23T05:58:23;4.47;;;1.17;;
29384;SDS011;16367;48.736;9.218;2023-04-23T06:00:26;3.22;;;1.08;;
29384;SDS011;16367;48.736;9.218;2023-04-23T06:02:31;4.38;;;1.15;;
29384;SDS011;16367;48.736;9.218;2023-04-23T06:04:35;3.28;;;1.00;;
29384;SDS011;16367;48.736;9.218;2023-04-23T06:06:38;3.35;;;1.30;;
29384;SDS011;16367;48.736;9.218;2023-04-23T06:08:41;3.53;;;1.30;;
29384;SDS011;16367;48.736;9.218;2023-04-23T06:10:43;3.28;;;1.05;;
29384;SDS011;16367;48.736;9.218;2023-04-23T06:12:46;3.75;;;1.25;;
29384;SDS011;16367;48.736;9.218;2023-04-23T06:14:51;3.00;;;1.10;;
29384;SDS011;16367;48.736;9.218;2023-04-23T06:16:53;3.03;;;1.08;;
29384;SDS011;16367;48.736;9.218;2023-04-23T06:18:58;3.20;;;1.10;;
29384;SDS011;16367;48.736;9.218;2023-04-23T06:21:00;4.68;;;1.33;;
29384;SDS011;16367;48.736;9.218;2023-04-23T06:23:04;2.92;;;0.90;;
29384;SDS011;16367;48.736;9.218;2023-04-23T06:25:07;2.70;;;0.85;;
29384;SDS011;16367;48.736;9.218;2023-04-23T06:27:11;3.42;;;0.95;;
29384;SDS011;16367;48.736;9.218;2023-04-23T06:29:14;3.17;;;1.02;;
29384;SDS011;16367;48.736;9.218;2023-04-23T06:31:17;3.17;;;1.00;;
29384;SDS011;16367;48.736;9.218;2023-04-23T06:33:20;3.08;;;0.90;;
29384;SDS011;16367;48.736;9.218;2023-04-23T06:35:24;2.97;;;0.82;;
29384;SDS011;16367;48.736;9.218;2023-04-23T06:37:27;2.67;;;0.80;;
29384;SDS011;16367;48.736;9.218;2023-04-23T06:39:31;2.72;;;1.02;;
29384;SDS011;16367;48.736;9.218;2023-04-23T06:41:33;2.70;;;0.90;;
29384;SDS011;16367;48.736;9.218;2023-04-23T06:43:36;3.13;;;0.93;;
29384;SDS011;16367;48.736;9.218;2023-04-23T06:45:39;2.38;;;0.75;;
29384;SDS011;16367;48.736;9.218;2023-04-23T06:47:42;3.75;;;0.80;;
29384;SDS011;16367;48.736;9.218;2023-04-23T06:49:45;2.53;;;0.70;;
29384;SDS011;16367;48.736;9.218;2023-04-23T06:51:49;2.58;;;0.80;;
29384;SDS011;16367;48.736;9.218;2023-04-23T06:53:51;4.38;;;0.90;;
29384;SDS011;16367;48.736;9.218;2023-04-23T06:55:54;3.08;;;0.82;;
29384;SDS011;16367;48.736;9.218;2023-04-23T06:57:57;3.33;;;0.93;;
29384;SDS011;16367;48.736;9.218;2023-04-23T07:00:00;3.55;;;0.75;;
29384;SDS011;16367;48.736;9.218;2023-04-23T07:02:03;3.42;;;0.90;;
29384;SDS011;16367;48.736;9.218;2023-04-23T07:04:05;1.45;;;0.50;;
29384;SDS011;16367;48.736;9.218;2023-04-23T07:06:08;2.60;;;0.93;;
29384;SDS011;16367;48.736;9.218;2023-04-23T07:08:12;2.38;;;0.80;;
29384;SDS011;16367;48.736;9.218;2023-04-23T07:10:15;2.33;;;0.75;;
29384;SDS011;16367;48.736;9.218;2023-04-23T07:12:18;2.50;;;0.82;;
29384;SDS011;16367;48.736;9.218;2023-04-23T07:14:21;2.25;;;0.77;;
29384;SDS011;16367;48.736;9.218;2023-04-23T07:16:24;1.63;;;0.68;;
29384;SDS011;16367;48.736;9.218;2023-04-23T07:18:29;1.83;;;0.63;;
29384;SDS011;16367;48.736;9.218;2023-04-23T07:20:32;2.30;;;0.70;;
29384;SDS011;16367;48.736;9.218;2023-04-23T07:22:35;2.80;;;0.80;;
29384;SDS011;16367;48.736;9.218;2023-04-23T07:24:39;2.47;;;0.70;;
29384;SDS011;16367;48.736;9.218;2023-04-23T07:26:42;2.22;;;0.70;;
29384;SDS011;16367;48.736;9.218;2023-04-23T07:28:46;2.80;;;0.73;;
29384;SDS011;16367;48.736;9.218;2023-04-23T07:30:53;3.47;;;0.80;;
29384;SDS011;16367;48.736;9.218;2023-04-23T07:32:56;2.78;;;0.70;;
29384;SDS011;16367;48.736;9.218;2023-04-23T07:34:59;2.55;;;0.80;;
29384;SDS011;16367;48.736;9.218;2023-04-23T07:37:01;2.80;;;0.98;;
29384;SDS011;16367;48.736;9.218;2023-04-23T07:39:04;2.78;;;0.90;;
29384;SDS011;16367;48.736;9.218;2023-04-23T07:41:08;2.30;;;0.75;;
29384;SDS011;16367;48.736;9.218;2023-04-23T07:43:11;3.10;;;0.90;;
29384;SDS011;16367;48.736;9.218;2023-04-23T07:45:15;2.90;;;0.88;;
29384;SDS011;16367;48.736;9.218;2023-04-23T07:47:17;2.88;;;0.90;;
29384;SDS011;16367;48.736;9.218;2023-04-23T07:49:20;2.97;;;1.17;;
29384;SDS011;16367;48.736;9.218;2023-04-23T07:51:23;2.92;;;0.90;;
29384;SDS011;16367;48.736;9.218;2023-04-23T07:53:27;2.78;;;0.82;;
29384;SDS011;16367;48.736;9.218;2023-04-23T07:55:30;2.58;;;0.85;;
29384;SDS011;16367;48.736;9.218;2023-04-23T07:57:34;2.58;;;0.88;;
29384;SDS011;16367;48.736;9.218;2023-04-23T07:59:36;3.28;;;1.10;;
29384;SDS011;16367;48.736;9.218;2023-04-23T08:01:40;3.10;;;1.10;;
29384;SDS011;16367;48.736;9.218;2023-04-23T08:03:43;2.90;;;0.80;;
29384;SDS011;16367;48.736;9.218;2023-04-23T08:05:46;3.33;;;0.90;;
29384;SDS011;16367;48.736;9.218;2023-04-23T08:07:48;3.47;;;0.95;;
29384;SDS011;16367;48.736;9.218;2023-04-23T08:09:51;2.45;;;0.82;;
29384;SDS011;16367;48.736;9.218;2023-04-23T08:11:54;2.50;;;0.80;;
29384;SDS011;16367;48.736;9.218;2023-04-23T08:13:59;3.38;;;0.98;;
29384;SDS011;16367;48.736;9.218;2023-04-23T08:16:01;2.38;;;0.80;;
29384;SDS011;16367;48.736;9.218;2023-04-23T08:18:04;2.75;;;0.85;;
29384;SDS011;16367;48.736;9.218;2023-04-23T08:20:07;2.33;;;0.90;;
29384;SDS011;16367;48.736;9.218;2023-04-23T08:22:10;2.83;;;0.90;;
29384;SDS011;16367;48.736;9.218;2023-04-23T08:24:13;3.20;;;1.00;;
29384;SDS011;16367;48.736;9.218;2023-04-23T08:26:16;2.97;;;0.90;;
29384;SDS011;16367;48.736;9.218;2023-04-23T08:28:19;3.03;;;1.17;;
29384;SDS011;16367;48.736;9.218;2023-04-23T08:30:23;3.53;;;0.90;;
29384;SDS011;16367;48.736;9.218;2023-04-23T08:32:26;3.75;;;1.20;;
29384;SDS011;16367;48.736;9.218;2023-04-23T08:34:31;2.72;;;1.05;;
29384;SDS011;16367;48.736;9.218;2023-04-23T08:36:36;3.10;;;1.00;;
29384;SDS011;16367;48.736;9.218;2023-04-23T08:38:38;3.33;;;1.05;;
29384;SDS011;16367;48.736;9.218;2023-04-23T08:40:41;3.67;;;1.20;;
29384;SDS011;16367;48.736;9.218;2023-04-23T08:42:48;4.70;;;1.23;;
29384;SDS011;16367;48.736;9.218;2023-04-23T08:44:51;2.95;;;0.95;;
29384;SDS011;16367;48.736;9.218;2023-04-23T08:46:57;3.95;;;1.10;;
29384;SDS011;16367;48.736;9.218;2023-04-23T08:49:05;3.95;;;1.00;;
29384;SDS011;16367;48.736;9.218;2023-04-23T08:51:09;2.67;;;0.80;;
29384;SDS011;16367;48.736;9.218;2023-04-23T08:53:18;4.68;;;0.90;;
29384;SDS011;16367;48.736;9.218;2023-04-23T08:55:28;3.45;;;1.00;;
29384;SDS011;16367;48.736;9.218;2023-04-23T08:57:31;3.75;;;1.00;;
29384;SDS011;16367;48.736;9.218;2023-04-23T08:59:34;3.22;;;1.00;;
29384;SDS011;16367;48.736;9.218;2023-04-23T09:01:39;3.00;;;0.90;;
29384;SDS011;16367;48.736;9.218;2023-04-23T09:03:44;2.80;;;0.95;;
29384;SDS011;16367;48.736;9.218;2023-04-23T09:05:48;2.50;;;0.95;;
29384;SDS011;16367;48.736;9.218;2023-04-23T09:07:53;3.22;;;0.90;;
29384;SDS011;16367;48.736;9.218;2023-04-23T09:09:55;3.40;;;0.82;;
29384;SDS011;16367;48.736;9.218;2023-04-23T09:11:58;2.97;;;0.80;;
29384;SDS011;16367;48.736;9.218;2023-04-23T09:14:01;2.20;;;0.73;;
29384;SDS011;16367;48.736;9.218;2023-04-23T09:16:04;1.98;;;0.70;;
29384;SDS011;16367;48.736;9.218;2023-04-23T09:18:07;2.20;;;0.77;;
29384;SDS011;16367;48.736;9.218;2023-04-23T09:20:13;3.40;;;0.70;;
29384;SDS011;16367;48.736;9.218;2023-04-23T09:22:16;2.60;;;0.82;;
29384;SDS011;16367;48.736;9.218;2023-04-23T09:24:40;2.55;;;0.73;;
29384;SDS011;16367;48.736;9.218;2023-04-23T09:26:44;4.18;;;1.23;;
29384;SDS011;16367;48.736;9.218;2023-04-23T09:28:48;2.40;;;0.80;;
29384;SDS011;16367;48.736;9.218;2023-04-23T09:30:52;2.70;;;0.80;;
29384;SDS011;16367;48.736;9.218;2023-04-23T09:32:55;3.33;;;1.00;;
29384;SDS011;16367;48.736;9.218;2023-04-23T09:34:58;2.65;;;0.80;;
29384;SDS011;16367;48.736;9.218;2023-04-23T09:37:05;4.03;;;1.10;;
29384;SDS011;16367;48.736;9.218;2023-04-23T09:39:11;2.60;;;0.80;;
29384;SDS011;16367;48.736;9.218;2023-04-23T09:41:21;2.80;;;0.80;;
29384;SDS011;16367;48.736;9.218;2023-04-23T09:43:24;3.50;;;0.80;;
29384;SDS011;16367;48.736;9.218;2023-04-23T09:45:31;2.90;;;0.70;;
29384;SDS011;16367;48.736;9.218;2023-04-23T09:47:36;1.88;;;0.65;;
29384;SDS011;16367;48.736;9.218;2023-04-23T09:49:44;3.70;;;0.70;;
29384;SDS011;16367;48.736;9.218;2023-04-23T09:51:48;2.70;;;0.90;;
29384;SDS011;16367;48.736;9.218;2023-04-23T09:53:52;2.97;;;0.80;;
29384;SDS011;16367;48.736;9.218;2023-04-23T09:55:55;2.30;;;0.80;;
29384;SDS011;16367;48.736;9.218;2023-04-23T09:57:58;2.72;;;0.90;;
29384;SDS011;16367;48.736;9.218;2023-04-23T10:00:11;2.42;;;0.80;;
29384;SDS011;16367;48.736;9.218;2023-04-23T10:02:16;4.18;;;0.75;;
29384;SDS011;16367;48.736;9.218;2023-04-23T10:04:19;2.00;;;0.60;;
29384;SDS011;16367;48.736;9.218;2023-04-23T10:06:27;3.33;;;1.00;;
29384;SDS011;16367;48.736;9.218;2023-04-23T10:08:37;2.35;;;0.80;;
29384;SDS011;16367;48.736;9.218;2023-04-23T10:10:41;2.95;;;0.80;;
29384;SDS011;16367;48.736;9.218;2023-04-23T10:13:06;2.33;;;0.80;;
29384;SDS011;16367;48.736;9.218;2023-04-23T10:15:10;2.20;;;0.70;;
29384;SDS011;16367;48.736;9.218;2023-04-23T10:17:13;2.65;;;0.80;;
29384;SDS011;16367;48.736;9.218;2023-04-23T10:19:16;2.70;;;0.75;;
29384;SDS011;16367;48.736;9.218;2023-04-23T10:23:36;2.50;;;0.75;;
29384;SDS011;16367;48.736;9.218;2023-04-23T10:25:44;1.95;;;0.77;;
29384;SDS011;16367;48.736;9.218;2023-04-23T10:29:55;2.20;;;0.85;;
29384;SDS011;16367;48.736;9.218;2023-04-23T10:31:59;2.80;;;0.90;;
29384;SDS011;16367;48.736;9.218;2023-04-23T10:34:04;2.42;;;0.70;;
29384;SDS011;16367;48.736;9.218;2023-04-23T10:36:08;3.20;;;1.02;;
29384;SDS011;16367;48.736;9.218;2023-04-23T10:38:12;4.38;;;0.93;;
29384;SDS011;16367;48.736;9.218;2023-04-23T10:40:17;3.53;;;0.90;;
29384;SDS011;16367;48.736;9.218;2023-04-23T10:42:23;2.40;;;0.90;;
29384;SDS011;16367;48.736;9.218;2023-04-23T10:44:31;3.10;;;0.82;;
29384;SDS011;16367;48.736;9.218;2023-04-23T10:46:54;2.58;;;0.70;;
29384;SDS011;16367;48.736;9.218;2023-04-23T10:49:06;3.58;;;1.00;;
29384;SDS011;16367;48.736;9.218;2023-04-23T10:51:13;2.97;;;0.90;;
29384;SDS011;16367;48.736;9.218;2023-04-23T10:53:38;3.20;;;1.10;;
29384;SDS011;16367;48.736;9.218;2023-04-23T10:55:43;2.50;;;0.82;;
29384;SDS011;16367;48.736;9.218;2023-04-23T10:58:00;4.15;;;1.00;;
29384;SDS011;16367;48.736;9.218;2023-04-23T11:00:05;3.25;;;1.08;;
29384;SDS011;16367;48.736;9.218;2023-04-23T11:02:10;1.95;;;0.80;;
29384;SDS011;16367;48.736;9.218;2023-04-23T11:04:20;2.22;;;0.80;;
29384;SDS011;16367;48.736;9.218;2023-04-23T11:11:37;2.67;;;0.70;;
29384;SDS011;16367;48.736;9.218;2023-04-23T11:13:50;2.97;;;0.93;;
29384;SDS011;16367;48.736;9.218;2023-04-23T11:18:17;2.72;;;1.02;;
29384;SDS011;16367;48.736;9.218;2023-04-23T11:20:20;1.98;;;0.75;;
29384;SDS011;16367;48.736;9.218;2023-04-23T11:22:25;2.28;;;0.80;;
29384;SDS011;16367;48.736;9.218;2023-04-23T11:24:36;2.50;;;0.80;;
29384;SDS011;16367;48.736;9.218;2023-04-23T11:26:42;1.80;;;0.63;;
29384;SDS011;16367;48.736;9.218;2023-04-23T11:28:46;2.35;;;0.73;;
29384;SDS011;16367;48.736;9.218;2023-04-23T11:30:52;3.75;;;0.80;;
29384;SDS011;16367;48.736;9.218;2023-04-23T11:32:55;1.83;;;0.70;;
29384;SDS011;16367;48.736;9.218;2023-04-23T11:35:00;2.28;;;0.70;;
29384;SDS011;16367;48.736;9.218;2023-04-23T11:37:05;3.03;;;0.93;;
29384;SDS011;16367;48.736;9.218;2023-04-23T11:39:11;2.88;;;0.90;;
29384;SDS011;16367;48.736;9.218;2023-04-23T11:41:15;2.08;;;0.75;;
29384;SDS011;16367;48.736;9.218;2023-04-23T11:43:24;3.40;;;0.75;;
29384;SDS011;16367;48.736;9.218;2023-04-23T11:45:29;3.00;;;0.82;;
29384;SDS011;16367;48.736;9.218;2023-04-23T11:47:34;2.90;;;0.90;;
29384;SDS011;16367;48.736;9.218;2023-04-23T11:49:37;2.22;;;0.80;;
29384;SDS011;16367;48.736;9.218;2023-04-23T11:51:41;3.50;;;1.10;;
29384;SDS011;16367;48.736;9.218;2023-04-23T11:53:45;3.67;;;0.80;;
29384;SDS011;16367;48.736;9.218;2023-04-23T11:55:48;3.72;;;0.90;;
29384;SDS011;16367;48.736;9.218;2023-04-23T11:57:51;2.83;;;0.73;;
29384;SDS011;16367;48.736;9.218;2023-04-23T11:59:54;3.70;;;0.80;;
29384;SDS011;16367;48.736;9.218;2023-04-23T12:01:57;3.38;;;1.15;;
29384;SDS011;16367;48.736;9.218;2023-04-23T12:04:08;2.13;;;0.80;;
29384;SDS011;16367;48.736;9.218;2023-04-23T12:06:16;3.15;;;0.82;;
29384;SDS011;16367;48.736;9.218;2023-04-23T12:08:19;3.92;;;0.90;;
29384;SDS011;16367;48.736;9.218;2023-04-23T12:10:22;2.53;;;0.70;;
29384;SDS011;16367;48.736;9.218;2023-04-23T12:12:31;2.40;;;0.85;;
29384;SDS011;16367;48.736;9.218;2023-04-23T12:14:34;2.47;;;0.80;;
29384;SDS011;16367;48.736;9.218;2023-04-23T12:16:37;2.30;;;0.85;;
29384;SDS011;16367;48.736;9.218;2023-04-23T12:18:41;2.53;;;0.80;;
29384;SDS011;16367;48.736;9.218;2023-04-23T12:20:46;5.78;;;0.85;;
29384;SDS011;16367;48.736;9.218;2023-04-23T12:22:48;2.10;;;0.70;;
29384;SDS011;16367;48.736;9.218;2023-04-23T12:24:51;3.00;;;0.80;;
29384;SDS011;16367;48.736;9.218;2023-04-23T12:26:55;2.55;;;0.80;;
29384;SDS011;16367;48.736;9.218;2023-04-23T12:29:01;2.88;;;0.82;;
29384;SDS011;16367;48.736;9.218;2023-04-23T12:31:03;2.85;;;0.85;;
29384;SDS011;16367;48.736;9.218;2023-04-23T12:33:09;1.75;;;0.70;;
29384;SDS011;16367;48.736;9.218;2023-04-23T12:35:12;2.40;;;0.90;;
29384;SDS011;16367;48.736;9.218;2023-04-23T12:37:16;2.65;;;0.85;;
29384;SDS011;16367;48.736;9.218;2023-04-23T12:39:20;4.30;;;0.90;;